createdAt,value
2019-05-19T00:01:17.019Z,99362.97
2019-05-19T00:02:51.468Z,99364.81
2019-05-19T00:04:26.478Z,99363.03
2019-05-19T00:06:00.837Z,99360.01
2019-05-19T00:07:35.838Z,99368.73
2019-05-19T00:09:10.295Z,99364.74
2019-05-19T00:10:45.186Z,99363.77
2019-05-19T00:12:19.534Z,99364.66
2019-05-19T00:13:54.448Z,99372.02
2019-05-19T00:15:28.922Z,99368.83
2019-05-19T00:17:03.842Z,99372.95
2019-05-19T00:18:38.201Z,99370.16
2019-05-19T00:20:13.317Z,99367.90
2019-05-19T00:21:47.966Z,99368.89
2019-05-19T00:23:23.308Z,99369.06
2019-05-19T00:24:57.654Z,99367.62
2019-05-19T00:26:32.601Z,99371.57
2019-05-19T00:28:07.105Z,99366.43
2019-05-19T00:29:42.375Z,99369.05
2019-05-19T00:31:16.750Z,99365.91
2019-05-19T00:32:51.686Z,99365.98
2019-05-19T00:34:26.045Z,99366.63
2019-05-19T00:36:00.962Z,99361.78
2019-05-19T00:37:35.368Z,99360.09
2019-05-19T00:39:10.291Z,99359.33
2019-05-19T00:40:44.721Z,99356.92
2019-05-19T00:42:19.634Z,99355.43
2019-05-19T00:43:54.470Z,99350.84
2019-05-19T00:45:29.386Z,99353.39
2019-05-19T00:47:03.857Z,99349.69
2019-05-19T00:48:38.798Z,99351.24
2019-05-19T00:50:13.395Z,99351.91
2019-05-19T00:51:48.597Z,99351.89
2019-05-19T00:53:23.171Z,99349.45
2019-05-19T00:54:58.078Z,99353.16
2019-05-19T00:56:33.055Z,99353.72
2019-05-19T00:58:08.882Z,99358.13
2019-05-19T00:59:43.934Z,99355.31
2019-05-19T01:01:19.002Z,99349.38
2019-05-19T01:02:53.660Z,99358.13
2019-05-19T01:04:28.589Z,99358.73
2019-05-19T01:06:02.961Z,99356.66
2019-05-19T01:07:38.231Z,99356.52
2019-05-19T01:09:12.857Z,99357.92
2019-05-19T01:10:47.824Z,99357.59
2019-05-19T01:12:22.598Z,99355.88
2019-05-19T01:13:57.743Z,99351.63
2019-05-19T01:15:32.118Z,99357.84
2019-05-19T01:17:07.020Z,99358.77
2019-05-19T01:18:41.445Z,99352.00
2019-05-19T01:20:16.721Z,99353.89
2019-05-19T01:21:51.185Z,99353.83
2019-05-19T01:23:26.370Z,99356.41
2019-05-19T01:25:00.755Z,99351.13
2019-05-19T01:26:36.022Z,99352.67
2019-05-19T01:28:10.675Z,99350.20
2019-05-19T01:29:45.586Z,99342.61
2019-05-19T01:31:19.967Z,99347.92
2019-05-19T01:32:55.197Z,99345.00
2019-05-19T01:34:29.562Z,99338.58
2019-05-19T01:36:04.570Z,99336.52
2019-05-19T01:37:38.954Z,99343.67
2019-05-19T01:39:14.202Z,99348.31
2019-05-19T01:40:48.833Z,99343.67
2019-05-19T01:42:24.086Z,99342.53
2019-05-19T01:43:58.862Z,99344.70
2019-05-19T01:45:33.905Z,99350.59
2019-05-19T01:47:08.281Z,99346.88
2019-05-19T01:48:43.194Z,99349.95
2019-05-19T01:50:18.650Z,99344.09
2019-05-19T01:51:53.988Z,99346.44
2019-05-19T01:53:28.871Z,99347.72
2019-05-19T01:55:03.926Z,99342.45
2019-05-19T01:56:38.305Z,99342.64
2019-05-19T01:58:13.558Z,99334.83
2019-05-19T01:59:48.204Z,99344.15
2019-05-19T02:01:23.101Z,99332.95
2019-05-19T02:02:57.458Z,99337.87
2019-05-19T02:04:32.390Z,99332.19
2019-05-19T02:06:06.838Z,99328.67
2019-05-19T02:07:42.128Z,99340.33
2019-05-19T02:09:16.549Z,99325.61
2019-05-19T02:10:51.570Z,99330.31
2019-05-19T02:12:25.955Z,99326.78
2019-05-19T02:14:01.456Z,99332.78
2019-05-19T02:15:35.875Z,99326.73
2019-05-19T02:17:11.274Z,99326.34
2019-05-19T02:18:46.102Z,99325.35
2019-05-19T02:20:32.652Z,99331.34
2019-05-19T02:21:57.483Z,99327.47
2019-05-19T02:23:32.402Z,99323.87
2019-05-19T02:25:07.281Z,99333.86
2019-05-19T02:26:42.257Z,99332.46
2019-05-19T02:28:16.906Z,99330.48
2019-05-19T02:29:51.882Z,99328.70
2019-05-19T02:31:26.272Z,99328.50
2019-05-19T02:33:01.232Z,99331.95
2019-05-19T02:34:35.650Z,99328.88
2019-05-19T02:36:10.542Z,99334.08
2019-05-19T02:37:45.511Z,99329.36
2019-05-19T02:39:20.432Z,99332.78
2019-05-19T02:40:56.495Z,99334.17
2019-05-19T02:42:33.736Z,99332.59
2019-05-19T02:44:08.904Z,99328.05
2019-05-19T02:45:44.746Z,99329.10
2019-05-19T02:47:20.907Z,99324.84
2019-05-19T02:48:57.312Z,99328.05
2019-05-19T02:50:50.802Z,99330.11
2019-05-19T02:52:15.440Z,99333.34
2019-05-19T02:53:50.870Z,99325.64
2019-05-19T02:55:27.619Z,99326.44
2019-05-19T02:57:04.053Z,99325.65
2019-05-19T02:58:40.115Z,99330.50
2019-05-19T03:00:14.890Z,99324.69
2019-05-19T03:02:03.509Z,99323.03
2019-05-19T03:03:38.763Z,99326.67
2019-05-19T03:05:13.511Z,99319.38
2019-05-19T03:06:48.433Z,99324.62
2019-05-19T03:08:22.823Z,99319.61
2019-05-19T03:09:57.807Z,99325.53
2019-05-19T03:11:32.288Z,99312.69
2019-05-19T03:13:07.304Z,99318.86
2019-05-19T03:14:41.774Z,99318.95
2019-05-19T03:16:16.708Z,99325.03
2019-05-19T03:17:51.092Z,99326.12
2019-05-19T03:19:26.082Z,99327.62
2019-05-19T03:21:10.550Z,99333.34
2019-05-19T03:22:37.107Z,99334.83
2019-05-19T03:24:11.580Z,99331.90
2019-05-19T03:25:46.637Z,99338.22
2019-05-19T03:27:21.068Z,99325.81
2019-05-19T03:28:56.003Z,99328.38
2019-05-19T03:30:42.205Z,99328.39
2019-05-19T03:32:39.446Z,99322.41
2019-05-19T03:34:15.123Z,99329.42
2019-05-19T03:35:49.478Z,99322.63
2019-05-19T03:37:24.403Z,99322.48
2019-05-19T03:38:59.147Z,99329.95
2019-05-19T03:40:34.155Z,99325.56
2019-05-19T03:42:10.519Z,99332.88
2019-05-19T03:43:45.619Z,99334.61
2019-05-19T03:45:20.131Z,99332.70
2019-05-19T03:46:55.290Z,99332.55
2019-05-19T03:48:29.750Z,99336.84
2019-05-19T03:50:04.792Z,99338.41
2019-05-19T03:51:39.572Z,99335.97
2019-05-19T03:53:14.770Z,99335.97
2019-05-19T03:54:49.480Z,99335.81
2019-05-19T03:56:24.401Z,99333.75
2019-05-19T03:57:58.790Z,99340.20
2019-05-19T03:59:33.718Z,99336.35
2019-05-19T04:01:08.367Z,99330.85
2019-05-19T04:02:43.303Z,99330.27
2019-05-19T04:04:18.060Z,99332.13
2019-05-19T04:05:52.979Z,99334.59
2019-05-19T04:07:27.386Z,99330.53
2019-05-19T04:09:02.376Z,99339.70
2019-05-19T04:10:36.790Z,99337.80
2019-05-19T04:12:12.074Z,99340.36
2019-05-19T04:13:46.480Z,99337.52
2019-05-19T04:15:21.527Z,99340.80
2019-05-19T04:16:55.976Z,99342.81
2019-05-19T04:18:30.909Z,99342.83
2019-05-19T04:20:05.652Z,99339.02
2019-05-19T04:21:48.778Z,99340.56
2019-05-19T04:23:17.066Z,99344.84
2019-05-19T04:24:52.094Z,99346.09
2019-05-19T04:26:26.937Z,99341.42
2019-05-19T04:28:01.874Z,99343.70
2019-05-19T04:29:39.341Z,99345.48
2019-05-19T04:31:12.984Z,99341.88
2019-05-19T04:32:47.352Z,99343.78
2019-05-19T04:34:22.368Z,99337.20
2019-05-19T04:35:57.618Z,99343.16
2019-05-19T04:37:32.759Z,99339.81
2019-05-19T04:39:07.992Z,99342.45
2019-05-19T04:40:43.773Z,99349.95
2019-05-19T04:42:18.179Z,99345.87
2019-05-19T04:43:53.203Z,99344.41
2019-05-19T04:45:27.800Z,99345.35
2019-05-19T04:47:02.718Z,99342.30
2019-05-19T04:48:37.155Z,99348.73
2019-05-19T04:50:12.231Z,99345.30
2019-05-19T04:51:46.778Z,99345.00
2019-05-19T04:53:21.776Z,99342.65
2019-05-19T04:54:56.704Z,99339.63
2019-05-19T04:56:31.642Z,99342.12
2019-05-19T04:58:06.153Z,99334.82
2019-05-19T04:59:41.070Z,99336.06
2019-05-19T05:01:15.467Z,99335.89
2019-05-19T05:02:50.475Z,99340.02
2019-05-19T05:04:29.027Z,99337.96
2019-05-19T05:06:01.607Z,99337.29
2019-05-19T05:07:35.981Z,99331.28
2019-05-19T05:09:10.908Z,99331.20
2019-05-19T05:10:45.369Z,99334.91
2019-05-19T05:12:20.573Z,99327.88
2019-05-19T05:13:55.279Z,99329.35
2019-05-19T05:15:30.226Z,99329.13
2019-05-19T05:17:04.710Z,99332.79
2019-05-19T05:18:39.911Z,99331.62
2019-05-19T05:20:14.715Z,99335.63
2019-05-19T05:21:49.670Z,99329.98
2019-05-19T05:23:24.041Z,99328.69
2019-05-19T05:24:59.123Z,99325.44
2019-05-19T05:26:33.543Z,99325.62
2019-05-19T05:28:08.497Z,99327.23
2019-05-19T05:29:43.217Z,99328.66
2019-05-19T05:31:18.204Z,99327.72
2019-05-19T05:32:52.604Z,99329.72
2019-05-19T05:34:30.179Z,99317.80
2019-05-19T05:36:05.387Z,99317.23
2019-05-19T05:37:40.326Z,99324.38
2019-05-19T05:39:15.043Z,99318.45
2019-05-19T05:40:50.187Z,99316.33
2019-05-19T05:42:24.583Z,99311.33
2019-05-19T05:43:59.502Z,99310.98
2019-05-19T05:45:34.533Z,99303.03
2019-05-19T05:47:09.488Z,99303.09
2019-05-19T05:48:43.850Z,99300.39
2019-05-19T05:50:18.771Z,99306.06
2019-05-19T05:51:53.167Z,99307.13
2019-05-19T05:53:28.351Z,99302.69
2019-05-19T05:55:02.885Z,99295.53
2019-05-19T05:56:38.212Z,99296.80
2019-05-19T05:58:12.879Z,99300.98
2019-05-19T05:59:47.911Z,99302.58
2019-05-19T06:01:22.370Z,99304.00
2019-05-19T06:02:57.310Z,99299.08
2019-05-19T06:04:31.675Z,99289.95
2019-05-19T06:06:06.629Z,99293.59
2019-05-19T06:07:41.254Z,99297.64
2019-05-19T06:09:16.306Z,99298.81
2019-05-19T06:10:50.696Z,99300.67
2019-05-19T06:12:25.895Z,99296.86
2019-05-19T06:14:00.348Z,99296.09
2019-05-19T06:15:35.311Z,99296.34
2019-05-19T06:17:09.810Z,99295.64
2019-05-19T06:18:44.732Z,99293.56
2019-05-19T06:20:19.583Z,99295.28
2019-05-19T06:21:55.358Z,99292.13
2019-05-19T06:23:30.157Z,99296.41
2019-05-19T06:25:06.789Z,99295.59
2019-05-19T06:26:41.606Z,99294.29
2019-05-19T06:28:17.135Z,99301.32
2019-05-19T06:29:51.917Z,99299.84
2019-05-19T06:31:27.472Z,99299.70
2019-05-19T06:33:03.973Z,99296.75
2019-05-19T06:34:39.504Z,99297.39
2019-05-19T06:36:14.472Z,99294.25
2019-05-19T06:37:50.005Z,99297.39
2019-05-19T06:39:24.877Z,99299.53
2019-05-19T06:41:00.441Z,99297.88
2019-05-19T06:42:35.358Z,99298.70
2019-05-19T06:44:11.208Z,99294.88
2019-05-19T06:45:46.020Z,99291.94
2019-05-19T06:47:21.545Z,99292.45
2019-05-19T06:48:56.355Z,99295.38
2019-05-19T06:50:32.175Z,99285.95
2019-05-19T06:52:06.981Z,99282.24
2019-05-19T06:53:42.763Z,99278.93
2019-05-19T06:55:17.935Z,99286.63
2019-05-19T06:56:53.458Z,99282.63
2019-05-19T06:58:28.329Z,99273.83
2019-05-19T07:00:03.923Z,99275.81
2019-05-19T07:01:38.731Z,99279.67
2019-05-19T07:03:14.323Z,99279.04
2019-05-19T07:04:49.118Z,99277.81
2019-05-19T07:06:24.665Z,99280.69
2019-05-19T07:07:59.475Z,99279.67
2019-05-19T07:09:34.465Z,99273.42
2019-05-19T07:11:09.269Z,99272.06
2019-05-19T07:12:45.081Z,99273.16
2019-05-19T07:14:19.890Z,99265.23
2019-05-19T07:15:55.685Z,99263.26
2019-05-19T07:17:30.966Z,99259.06
2019-05-19T07:19:06.552Z,99262.16
2019-05-19T07:20:41.623Z,99260.61
2019-05-19T07:22:17.652Z,99258.25
2019-05-19T07:23:52.423Z,99257.30
2019-05-19T07:25:27.981Z,99251.77
2019-05-19T07:27:03.257Z,99259.02
2019-05-19T07:28:39.294Z,99254.05
2019-05-19T07:30:15.628Z,99248.30
2019-05-19T07:31:50.593Z,99242.30
2019-05-19T07:33:25.337Z,99241.23
2019-05-19T07:35:00.649Z,99241.03
2019-05-19T07:36:35.299Z,99242.90
2019-05-19T07:38:10.435Z,99245.28
2019-05-19T07:39:44.838Z,99235.23
2019-05-19T07:41:20.017Z,99233.89
2019-05-19T07:42:54.371Z,99231.20
2019-05-19T07:44:29.924Z,99234.30
2019-05-19T07:46:05.080Z,99233.48
2019-05-19T07:47:40.692Z,99242.47
2019-05-19T07:49:15.942Z,99238.44
2019-05-19T07:50:52.348Z,99230.84
2019-05-19T07:52:27.318Z,99226.85
2019-05-19T07:54:02.665Z,99243.95
2019-05-19T07:55:37.629Z,99231.69
2019-05-19T07:57:13.247Z,99233.81
2019-05-19T07:58:48.479Z,99232.06
2019-05-19T08:00:23.810Z,99227.67
2019-05-19T08:01:58.801Z,99224.25
2019-05-19T08:03:34.150Z,99219.86
2019-05-19T08:05:09.534Z,99215.53
2019-05-19T08:06:45.182Z,99225.05
2019-05-19T08:08:20.147Z,99213.45
2019-05-19T08:09:55.485Z,99218.23
2019-05-19T08:11:30.540Z,99213.34
2019-05-19T08:13:05.933Z,99218.41
2019-05-19T08:14:40.906Z,99221.64
2019-05-19T08:16:16.770Z,99216.50
2019-05-19T08:17:51.822Z,99213.71
2019-05-19T08:19:27.191Z,99210.88
2019-05-19T08:21:02.525Z,99214.95
2019-05-19T08:22:37.862Z,99211.08
2019-05-19T08:24:13.109Z,99218.36
2019-05-19T08:25:48.975Z,99204.73
2019-05-19T08:27:24.030Z,99211.70
2019-05-19T08:28:59.383Z,99203.68
2019-05-19T08:30:34.466Z,99204.12
2019-05-19T08:32:09.788Z,99203.91
2019-05-19T08:33:45.045Z,99197.33
2019-05-19T08:35:20.373Z,99199.95
2019-05-19T08:36:55.406Z,99199.72
2019-05-19T08:38:30.982Z,99204.12
2019-05-19T08:40:06.353Z,99194.19
2019-05-19T08:41:41.716Z,99184.11
2019-05-19T08:43:17.439Z,99194.03
2019-05-19T08:44:52.797Z,99202.22
2019-05-19T08:46:28.393Z,99201.53
2019-05-19T08:48:03.969Z,99202.35
2019-05-19T08:49:38.932Z,99199.31
2019-05-19T08:51:14.285Z,99196.02
2019-05-19T08:52:49.520Z,99202.31
2019-05-19T08:54:24.876Z,99190.23
2019-05-19T08:55:59.848Z,99186.69
2019-05-19T08:57:35.196Z,99185.95
2019-05-19T08:59:09.948Z,99193.47
2019-05-19T09:00:45.134Z,99193.80
2019-05-19T09:02:19.523Z,99191.98
2019-05-19T09:03:54.685Z,99184.31
2019-05-19T09:05:29.096Z,99184.28
2019-05-19T09:07:04.295Z,99181.03
2019-05-19T09:08:39.106Z,99177.31
2019-05-19T09:10:15.061Z,99177.18
2019-05-19T09:11:49.512Z,99180.91
2019-05-19T09:13:24.419Z,99179.50
2019-05-19T09:14:58.827Z,99177.19
2019-05-19T09:16:33.983Z,99173.80
2019-05-19T09:18:08.396Z,99173.55
2019-05-19T09:19:43.416Z,99171.47
2019-05-19T09:21:17.864Z,99169.22
2019-05-19T09:22:53.439Z,99164.30
2019-05-19T09:24:30.519Z,99166.41
2019-05-19T09:26:04.542Z,99158.41
2019-05-19T09:27:38.965Z,99161.41
2019-05-19T09:29:13.929Z,99166.73
2019-05-19T09:30:48.413Z,99159.74
2019-05-19T09:32:23.588Z,99164.16
2019-05-19T09:33:58.102Z,99154.39
2019-05-19T09:35:33.309Z,99151.31
2019-05-19T09:37:07.682Z,99151.45
2019-05-19T09:38:42.626Z,99143.99
2019-05-19T09:40:17.251Z,99143.56
2019-05-19T09:41:52.536Z,99143.56
2019-05-19T09:43:27.183Z,99146.91
2019-05-19T09:45:02.568Z,99149.77
2019-05-19T09:46:37.031Z,99132.15
2019-05-19T09:48:12.281Z,99142.30
2019-05-19T09:49:46.707Z,99141.56
2019-05-19T09:51:21.690Z,99137.66
2019-05-19T09:52:56.111Z,99143.96
2019-05-19T09:54:44.173Z,99146.98
2019-05-19T09:56:09.134Z,99149.14
2019-05-19T09:57:45.021Z,99140.28
2019-05-19T09:59:19.970Z,99139.97
2019-05-19T10:00:55.316Z,99139.55
2019-05-19T10:02:30.363Z,99137.14
2019-05-19T10:04:07.152Z,99129.56
2019-05-19T10:05:42.506Z,99130.67
2019-05-19T10:07:17.934Z,99128.09
2019-05-19T10:09:00.893Z,99117.20
2019-05-19T10:11:18.753Z,99129.69
2019-05-19T10:12:53.729Z,99119.77
2019-05-19T10:14:28.417Z,99120.84
2019-05-19T10:16:03.408Z,99126.02
2019-05-19T10:17:37.819Z,99125.06
2019-05-19T10:19:13.007Z,99123.67
2019-05-19T10:20:50.387Z,99128.13
2019-05-19T10:22:25.317Z,99132.94
2019-05-19T10:24:00.754Z,99125.27
2019-05-19T10:25:36.299Z,99120.45
2019-05-19T10:27:11.101Z,99114.08
2019-05-19T10:28:46.625Z,99130.22
2019-05-19T10:30:21.930Z,99132.64
2019-05-19T10:31:57.460Z,99128.19
2019-05-19T10:33:32.479Z,99119.22
2019-05-19T10:35:08.841Z,99119.16
2019-05-19T10:36:43.857Z,99121.85
2019-05-19T10:38:18.806Z,99117.27
2019-05-19T10:39:53.289Z,99120.70
2019-05-19T10:41:28.294Z,99108.06
2019-05-19T10:46:05.859Z,99121.09
2019-05-19T10:47:47.251Z,99125.77
2019-05-19T10:49:30.533Z,99120.66
2019-05-19T10:51:14.152Z,99109.89
2019-05-19T10:53:05.576Z,99098.09
2019-05-19T10:55:02.148Z,99102.41
2019-05-19T10:56:37.997Z,99109.63
2019-05-19T10:58:19.676Z,99114.77
2019-05-19T11:00:03.120Z,99105.81
2019-05-19T11:01:49.597Z,99100.98
2019-05-19T11:03:47.118Z,99095.30
2019-05-19T11:05:30.246Z,99092.91
2019-05-19T11:09:39.424Z,99099.11
2019-05-19T11:11:16.334Z,99089.70
2019-05-19T11:13:54.337Z,99090.59
2019-05-19T11:15:32.207Z,99097.80
2019-05-19T11:17:12.487Z,99093.55
2019-05-19T11:18:49.860Z,99105.55
2019-05-19T11:20:33.381Z,99103.30
2019-05-19T11:22:15.506Z,99097.20
2019-05-19T11:24:03.922Z,99075.34
2019-05-19T11:26:09.909Z,99068.16
2019-05-19T11:27:51.665Z,99090.82
2019-05-19T11:29:54.409Z,99084.92
2019-05-19T11:31:42.845Z,99076.16
2019-05-19T11:33:19.138Z,99085.41
2019-05-19T11:34:54.368Z,99082.59
2019-05-19T11:36:32.792Z,99078.48
2019-05-19T11:38:07.655Z,99063.63
2019-05-19T11:39:42.791Z,99077.66
2019-05-19T11:41:20.755Z,99068.55
2019-05-19T11:42:56.877Z,99063.40
2019-05-19T11:44:33.675Z,99062.50
2019-05-19T11:46:12.130Z,99061.91
2019-05-19T11:47:49.644Z,99048.99
2019-05-19T11:49:26.113Z,99054.38
2019-05-19T11:51:02.180Z,99044.73
2019-05-19T11:52:38.170Z,99064.34
2019-05-19T11:54:13.496Z,99060.20
2019-05-19T11:55:49.393Z,99069.51
2019-05-19T11:57:30.208Z,99051.89
2019-05-19T11:59:14.157Z,99044.00
2019-05-19T12:00:51.545Z,99060.55
2019-05-19T12:02:30.793Z,99073.59
2019-05-19T12:04:06.119Z,99066.81
2019-05-19T12:05:42.532Z,99052.74
2019-05-19T12:07:19.598Z,99050.86
2019-05-19T12:08:55.039Z,99060.39
2019-05-19T12:10:30.130Z,99039.92
2019-05-19T12:12:05.637Z,99063.45
2019-05-19T12:13:40.237Z,99066.53
2019-05-19T12:15:15.414Z,99065.54
2019-05-19T12:16:49.833Z,99065.04
2019-05-19T12:18:24.791Z,99058.98
2019-05-19T12:19:59.204Z,99063.45
2019-05-19T12:21:34.115Z,99065.47
2019-05-19T12:23:08.731Z,99062.94
2019-05-19T12:24:44.160Z,99058.98
2019-05-19T12:26:23.303Z,99060.80
2019-05-19T12:27:56.061Z,99052.90
2019-05-19T12:29:30.496Z,99053.66
2019-05-19T12:31:05.793Z,99059.80
2019-05-19T12:32:40.207Z,99056.87
2019-05-19T12:34:15.581Z,99064.70
2019-05-19T12:35:50.800Z,99060.28
2019-05-19T12:37:26.243Z,99058.17
2019-05-19T12:39:01.448Z,99058.41
2019-05-19T12:40:37.135Z,99050.49
2019-05-19T12:42:12.088Z,99044.23
2019-05-19T12:43:47.689Z,99041.63
2019-05-19T12:45:23.102Z,99046.77
2019-05-19T12:46:58.721Z,99056.04
2019-05-19T12:48:33.791Z,99044.48
2019-05-19T12:50:10.982Z,99038.64
2019-05-19T12:51:45.957Z,99036.25
2019-05-19T12:53:21.324Z,99037.06
2019-05-19T12:54:56.372Z,99035.03
2019-05-19T12:56:39.857Z,99041.94
2019-05-19T12:58:09.613Z,99038.39
2019-05-19T12:59:44.960Z,99034.36
2019-05-19T13:01:19.921Z,99026.44
2019-05-19T13:02:55.268Z,99029.00
2019-05-19T13:04:30.242Z,99025.19
2019-05-19T13:06:05.245Z,99026.55
2019-05-19T13:07:39.746Z,99038.56
2019-05-19T13:09:15.263Z,99042.70
2019-05-19T13:10:50.006Z,99036.36
2019-05-19T13:12:25.788Z,99020.88
2019-05-19T13:14:00.857Z,99029.78
2019-05-19T13:15:36.617Z,99023.35
2019-05-19T13:17:11.800Z,99030.41
2019-05-19T13:18:47.006Z,99026.88
2019-05-19T13:20:21.991Z,99024.47
2019-05-19T13:21:57.761Z,99021.62
2019-05-19T13:23:32.538Z,99022.23
2019-05-19T13:25:08.055Z,99019.96
2019-05-19T13:26:55.594Z,99020.36
2019-05-19T13:28:19.443Z,99025.55
2019-05-19T13:29:53.829Z,99034.34
2019-05-19T13:31:29.003Z,99032.63
2019-05-19T13:33:03.690Z,99028.34
2019-05-19T13:34:38.603Z,99023.21
2019-05-19T13:36:12.982Z,99023.73
2019-05-19T13:37:48.178Z,99032.41
2019-05-19T13:39:22.539Z,99021.48
2019-05-19T13:40:57.473Z,99021.39
2019-05-19T13:42:32.210Z,99003.09
2019-05-19T13:44:07.353Z,99008.44
2019-05-19T13:45:42.378Z,99003.17
2019-05-19T13:47:18.187Z,98993.93
2019-05-19T13:48:52.969Z,99003.61
2019-05-19T13:50:27.931Z,99002.76
2019-05-19T13:52:02.704Z,99014.14
2019-05-19T13:53:37.670Z,99018.77
2019-05-19T13:55:12.343Z,99010.99
2019-05-19T13:56:47.321Z,99006.81
2019-05-19T13:58:21.804Z,98991.78
2019-05-19T13:59:56.809Z,98996.38
2019-05-19T14:01:31.321Z,98998.97
2019-05-19T14:03:06.298Z,99001.33
2019-05-19T14:04:40.754Z,98984.80
2019-05-19T14:06:15.753Z,99003.70
2019-05-19T14:07:50.186Z,98998.81
2019-05-19T14:09:25.504Z,98999.91
2019-05-19T14:11:00.336Z,98997.96
2019-05-19T14:12:35.371Z,98996.00
2019-05-19T14:14:09.841Z,98993.74
2019-05-19T14:15:44.833Z,98991.77
2019-05-19T14:17:19.210Z,98991.52
2019-05-19T14:18:54.127Z,98987.06
2019-05-19T14:20:28.601Z,98981.57
2019-05-19T14:22:03.517Z,98984.56
2019-05-19T14:23:38.229Z,98979.86
2019-05-19T14:25:13.338Z,98977.59
2019-05-19T14:26:47.731Z,98980.34
2019-05-19T14:28:22.876Z,98977.95
2019-05-19T14:29:57.316Z,98979.37
2019-05-19T14:31:32.273Z,98980.52
2019-05-19T14:33:06.749Z,98979.05
2019-05-19T14:34:41.679Z,98970.92
2019-05-19T14:36:16.438Z,98971.59
2019-05-19T14:37:51.429Z,98973.69
2019-05-19T14:39:25.974Z,98972.27
2019-05-19T14:41:01.221Z,98968.89
2019-05-19T14:43:10.049Z,98970.38
2019-05-19T14:44:44.755Z,98970.30
2019-05-19T14:46:19.761Z,98973.97
2019-05-19T14:47:54.298Z,98962.36
2019-05-19T14:49:29.277Z,98965.84
2019-05-19T14:51:03.889Z,98968.77
2019-05-19T14:52:38.793Z,98969.16
2019-05-19T14:54:13.439Z,98965.28
2019-05-19T14:55:48.451Z,98958.98
2019-05-19T14:57:23.308Z,98958.51
2019-05-19T14:58:58.215Z,98967.22
2019-05-19T15:00:32.646Z,98964.78
2019-05-19T15:02:07.587Z,98956.95
2019-05-19T15:03:42.050Z,98956.67
2019-05-19T15:05:17.035Z,98952.39
2019-05-19T15:06:51.814Z,98956.06
2019-05-19T15:08:26.790Z,98957.97
2019-05-19T15:10:01.153Z,98955.61
2019-05-19T15:11:36.428Z,98956.64
2019-05-19T15:13:10.829Z,98948.33
2019-05-19T15:14:45.876Z,98947.94
2019-05-19T15:16:20.287Z,98948.95
2019-05-19T15:17:55.303Z,98947.59
2019-05-19T15:19:29.703Z,98945.70
2019-05-19T15:21:04.750Z,98943.95
2019-05-19T15:22:39.186Z,98942.11
2019-05-19T15:24:14.127Z,98940.75
2019-05-19T15:25:48.493Z,98939.00
2019-05-19T15:27:23.395Z,98940.86
2019-05-19T15:28:57.755Z,98926.05
2019-05-19T15:30:32.686Z,98932.38
2019-05-19T15:32:07.058Z,98926.57
2019-05-19T15:33:42.475Z,98929.86
2019-05-19T15:35:16.996Z,98918.73
2019-05-19T15:36:52.011Z,98924.70
2019-05-19T15:38:26.464Z,98928.71
2019-05-19T15:40:01.733Z,98925.87
2019-05-19T15:41:36.390Z,98925.41
2019-05-19T15:43:11.372Z,98930.27
2019-05-19T15:44:46.277Z,98926.46
2019-05-19T15:46:21.540Z,98932.38
2019-05-19T15:47:56.004Z,98928.52
2019-05-19T15:49:31.042Z,98928.58
2019-05-19T15:51:05.700Z,98923.77
2019-05-19T15:52:40.939Z,98921.67
2019-05-19T15:54:15.302Z,98920.97
2019-05-19T15:55:50.239Z,98920.14
2019-05-19T15:57:24.672Z,98914.56
2019-05-19T15:58:59.931Z,98908.34
2019-05-19T16:00:34.382Z,98912.58
2019-05-19T16:02:09.373Z,98911.59
2019-05-19T16:03:43.918Z,98909.45
2019-05-19T16:05:18.903Z,98911.97
2019-05-19T16:06:53.432Z,98910.63
2019-05-19T16:08:28.687Z,98909.14
2019-05-19T16:10:03.393Z,98908.95
2019-05-19T16:11:38.678Z,98904.22
2019-05-19T16:13:13.041Z,98903.31
2019-05-19T16:14:47.980Z,98905.45
2019-05-19T16:16:22.384Z,98911.11
2019-05-19T16:17:58.164Z,98905.55
2019-05-19T16:19:32.612Z,98902.78
2019-05-19T16:21:07.605Z,98910.87
2019-05-19T16:22:42.002Z,98910.12
2019-05-19T16:24:17.650Z,98915.20
2019-05-19T16:25:52.544Z,98909.17
2019-05-19T16:27:27.468Z,98917.15
2019-05-19T16:29:02.833Z,98918.16
2019-05-19T16:30:38.347Z,98919.19
2019-05-19T16:32:13.125Z,98913.48
2019-05-19T16:33:48.904Z,98917.89
2019-05-19T16:35:23.951Z,98911.84
2019-05-19T16:37:21.676Z,98915.86
2019-05-19T16:40:55.309Z,98913.82
2019-05-19T16:42:31.096Z,98907.90
2019-05-19T16:44:06.479Z,98905.48
2019-05-19T16:45:42.324Z,98906.90
2019-05-19T16:47:17.170Z,98910.02
2019-05-19T16:48:52.705Z,98907.81
2019-05-19T16:50:27.493Z,98910.05
2019-05-19T16:52:02.994Z,98909.83
2019-05-19T16:53:39.838Z,98917.33
2019-05-19T16:55:28.826Z,98918.02
2019-05-19T16:57:04.127Z,98910.19
2019-05-19T16:58:45.291Z,98911.77
2019-05-19T17:00:30.164Z,98908.15
2019-05-19T17:02:08.709Z,98913.32
2019-05-19T17:03:43.713Z,98910.33
2019-05-19T17:08:01.300Z,98909.33
2019-05-19T17:10:03.434Z,98905.91
2019-05-19T17:11:45.217Z,98907.52
2019-05-19T17:13:58.129Z,98909.68
2019-05-19T17:15:53.955Z,98908.41
2019-05-19T17:17:31.738Z,98906.25
2019-05-19T17:19:07.276Z,98903.58
2019-05-19T17:20:46.828Z,98902.52
2019-05-19T17:22:28.257Z,98903.37
2019-05-19T17:24:11.519Z,98912.91
2019-05-19T17:25:53.840Z,98911.08
2019-05-19T17:27:40.419Z,98904.37
2019-05-19T17:29:21.530Z,98903.01
2019-05-19T17:31:24.961Z,98902.35
2019-05-19T17:33:17.949Z,98911.50
2019-05-19T17:35:04.473Z,98916.64
2019-05-19T17:36:40.503Z,98911.91
2019-05-19T17:38:14.919Z,98908.89
2019-05-19T17:39:49.902Z,98915.08
2019-05-19T17:41:24.288Z,98909.91
2019-05-19T17:42:59.244Z,98906.66
2019-05-19T17:44:33.593Z,98912.59
2019-05-19T17:46:08.679Z,98910.87
2019-05-19T17:47:43.710Z,98908.94
2019-05-19T17:49:18.737Z,98913.07
2019-05-19T17:50:53.170Z,98910.70
2019-05-19T17:52:28.435Z,98914.16
2019-05-19T17:54:03.120Z,98916.06
2019-05-19T17:55:38.146Z,98920.38
2019-05-19T17:57:12.953Z,98919.78
2019-05-19T17:58:48.354Z,98917.05
2019-05-19T18:00:36.293Z,98921.80
2019-05-19T18:02:11.522Z,98924.73
2019-05-19T18:03:46.839Z,98931.12
2019-05-19T18:05:21.905Z,98928.09
2019-05-19T18:06:56.309Z,98927.34
2019-05-19T18:08:31.659Z,98926.17
2019-05-19T18:10:07.000Z,98930.30
2019-05-19T18:11:42.224Z,98930.55
2019-05-19T18:13:16.692Z,98935.48
2019-05-19T18:14:51.678Z,98926.79
2019-05-19T18:16:26.904Z,98929.27
2019-05-19T18:18:01.934Z,98937.83
2019-05-19T18:19:36.670Z,98929.37
2019-05-19T18:21:11.871Z,98933.19
2019-05-19T18:22:46.260Z,98931.67
2019-05-19T18:24:21.523Z,98935.89
2019-05-19T18:25:56.498Z,98940.34
2019-05-19T18:27:32.366Z,98941.37
2019-05-19T18:29:07.156Z,98937.21
2019-05-19T18:30:43.175Z,98941.64
2019-05-19T18:32:18.135Z,98946.15
2019-05-19T18:33:53.710Z,98943.21
2019-05-19T18:35:28.126Z,98949.07
2019-05-19T18:37:03.219Z,98948.76
2019-05-19T18:38:37.607Z,98949.44
2019-05-19T18:40:12.936Z,98955.22
2019-05-19T18:41:47.491Z,98962.96
2019-05-19T18:43:22.532Z,98959.19
2019-05-19T18:44:56.919Z,98962.67
2019-05-19T18:46:32.119Z,98959.58
2019-05-19T18:48:06.858Z,98964.52
2019-05-19T18:49:41.787Z,98968.30
2019-05-19T18:51:16.174Z,98973.22
2019-05-19T18:52:51.086Z,98974.98
2019-05-19T18:54:25.749Z,98970.92
2019-05-19T18:56:00.733Z,98973.05
2019-05-19T18:57:35.198Z,98969.59
2019-05-19T18:59:10.110Z,98972.55